KDTN/DTN METAR and TAF weather

Enter ICAO airport designator
Station Type Date Time Source
KDTN METAR 2020/08/15 08:53 UTC NOAA

KDTN 150853Z AUTO 00000KT 10SM CLR 27/24 A2991 RMK AO2 SLP125 T02670239 57002


Station Type Date Time Source
KDTN Decoded METAR 2020/08/15 08:53 UTC NOAA

SHREVEPORT DOWNTOWN AIRPORT, LA, United States (KDTN) 32-32N 093-45W 53M
Aug 15, 2020 - 04:53 AM EDT / 2020.08.15 0853 UTC
Wind: Calm:0
Visibility: 10 mile(s):0
Sky conditions: clear
Temperature: 80.1 F (26.7 C)
Dew Point: 75.0 F (23.9 C)
Relative Humidity: 84%
Pressure (altimeter): 29.91 in. Hg (1012 hPa)
Pressure tendency: 0.01 inches (0.2 hPa) lower than three hours ago
ob: KDTN 150853Z AUTO 00000KT 10SM CLR 27/24 A2991 RMK AO2 SLP125 T02670239 57002
cycle: 9

Station Type Date Time Source
KDTN TAF UTC NOAA

Error!

Example: see airport list